createdAt,value
2022-09-15T00:00:24.309Z,4.57
2022-09-15T00:05:32.010Z,4.47
2022-09-15T00:10:37.877Z,4.00
2022-09-15T00:15:43.118Z,5.45
2022-09-15T00:20:51.277Z,6.82
2022-09-15T00:25:56.737Z,5.50
2022-09-15T00:31:01.828Z,4.55
2022-09-15T00:36:12.690Z,4.70
2022-09-15T00:41:19.849Z,5.10
2022-09-15T00:46:27.271Z,4.45
2022-09-15T00:51:39.065Z,4.47
2022-09-15T00:56:44.903Z,4.10
2022-09-15T01:01:50.438Z,4.78
2022-09-15T01:07:01.842Z,4.65
2022-09-15T01:12:07.840Z,4.85
2022-09-15T01:17:21.181Z,4.68
2022-09-15T01:22:38.791Z,4.10
2022-09-15T01:28:08.202Z,4.03
2022-09-15T01:33:26.210Z,4.15
2022-09-15T01:38:41.281Z,6.53
2022-09-15T01:43:51.833Z,6.22
2022-09-15T01:49:00.662Z,6.20
2022-09-15T01:54:08.198Z,5.38
2022-09-15T01:59:13.188Z,5.20
2022-09-15T02:04:24.643Z,5.05
2022-09-15T02:09:32.306Z,5.00
2022-09-15T02:14:48.263Z,4.28
2022-09-15T02:19:58.836Z,3.80
2022-09-15T02:25:06.059Z,4.10
2022-09-15T02:30:13.771Z,4.45
2022-09-15T02:35:21.728Z,5.57
2022-09-15T02:40:26.842Z,8.00
2022-09-15T02:45:33.199Z,8.65
2022-09-15T02:50:41.438Z,8.15
2022-09-15T02:55:46.489Z,7.70
2022-09-15T03:00:52.887Z,7.90
2022-09-15T03:06:16.685Z,5.07
2022-09-15T03:11:23.269Z,4.40
2022-09-15T03:16:29.133Z,4.25
2022-09-15T03:21:37.736Z,4.35
2022-09-15T03:26:42.854Z,4.30
2022-09-15T03:31:47.916Z,4.00
2022-09-15T03:36:55.590Z,4.90
2022-09-15T03:42:00.643Z,4.00
2022-09-15T03:47:05.775Z,4.13
2022-09-15T03:52:13.434Z,4.88
2022-09-15T03:57:18.559Z,6.25
2022-09-15T04:02:23.621Z,6.53
2022-09-15T04:07:31.331Z,6.68
2022-09-15T04:12:36.514Z,8.88
2022-09-15T04:17:42.104Z,7.75
2022-09-15T04:22:50.454Z,6.68
2022-09-15T04:27:55.443Z,5.75
2022-09-15T04:33:00.518Z,4.97
2022-09-15T04:38:08.244Z,6.40
2022-09-15T04:43:13.288Z,3.67
2022-09-15T04:48:18.333Z,4.40
2022-09-15T04:53:25.971Z,5.65
2022-09-15T04:58:30.947Z,5.20
2022-09-15T05:03:38.590Z,4.85
2022-09-15T05:08:46.354Z,3.88
2022-09-15T05:13:51.726Z,3.55
2022-09-15T05:18:58.254Z,4.05
2022-09-15T05:24:05.894Z,3.42
2022-09-15T05:29:10.955Z,3.55
2022-09-15T05:34:15.969Z,3.88
2022-09-15T05:39:23.961Z,3.22
2022-09-15T05:44:29.408Z,4.10
2022-09-15T05:49:34.425Z,4.20
2022-09-15T05:54:42.040Z,4.22
2022-09-15T05:59:47.026Z,4.47
2022-09-15T06:04:52.038Z,5.05
2022-09-15T06:09:59.676Z,3.85
2022-09-15T06:15:04.739Z,7.28
2022-09-15T06:20:11.060Z,6.10
2022-09-15T06:25:18.939Z,4.32
2022-09-15T06:30:23.958Z,11.02
2022-09-15T06:35:28.974Z,4.93
2022-09-15T06:40:36.652Z,4.60
2022-09-15T06:45:42.841Z,4.63
2022-09-15T06:50:48.195Z,4.70
2022-09-15T06:55:55.810Z,3.08
2022-09-15T07:01:04.608Z,6.20
2022-09-15T07:11:17.722Z,5.95
2022-09-15T07:16:25.681Z,4.73
2022-09-15T07:21:30.917Z,10.20
2022-09-15T07:26:38.624Z,5.70
2022-09-15T07:31:43.712Z,8.93
2022-09-15T07:36:48.994Z,3.40
2022-09-15T07:41:56.632Z,1.90
2022-09-15T07:47:01.666Z,1.88
2022-09-15T07:52:06.906Z,1.58
2022-09-15T07:57:14.550Z,2.92
2022-09-15T08:02:20.682Z,1.40
2022-09-15T08:07:25.766Z,1.73
2022-09-15T08:12:34.008Z,1.58
2022-09-15T08:17:39.241Z,1.70
2022-09-15T08:22:45.807Z,2.35
2022-09-15T08:27:53.902Z,1.50
2022-09-15T08:32:58.898Z,1.33
2022-09-15T08:38:03.900Z,2.30
2022-09-15T08:43:18.641Z,2.10
2022-09-15T08:48:27.194Z,1.70
2022-09-15T08:53:35.392Z,2.72
2022-09-15T08:58:43.022Z,1.97
2022-09-15T09:04:00.943Z,2.47
2022-09-15T09:09:16.890Z,4.95
2022-09-15T09:14:29.366Z,2.45
2022-09-15T09:19:50.712Z,2.92
2022-09-15T09:24:57.547Z,2.97
2022-09-15T09:30:07.698Z,1.92
2022-09-15T09:35:20.267Z,1.67
2022-09-15T09:40:25.931Z,2.00
2022-09-15T09:45:33.766Z,1.90
2022-09-15T09:50:43.281Z,3.10
2022-09-15T09:55:48.785Z,3.53
2022-09-15T10:00:56.712Z,3.40
2022-09-15T10:06:07.435Z,3.43
2022-09-15T10:11:13.350Z,3.60
2022-09-15T10:16:22.647Z,2.78
2022-09-15T10:21:28.458Z,2.35
2022-09-15T10:26:38.123Z,1.98
2022-09-15T10:31:46.397Z,2.00
2022-09-15T10:36:51.650Z,1.80
2022-09-15T10:42:04.622Z,2.15
2022-09-15T10:47:17.712Z,2.20
2022-09-15T10:52:31.237Z,1.83
2022-09-15T10:57:47.581Z,2.25
2022-09-15T11:03:25.504Z,1.92
2022-09-15T11:09:07.971Z,1.52
2022-09-15T11:14:25.495Z,2.22
2022-09-15T11:19:47.039Z,1.60
2022-09-15T11:24:55.846Z,1.60
2022-09-15T11:30:07.998Z,1.35
2022-09-15T11:35:40.818Z,1.52
2022-09-15T11:40:50.714Z,1.50
2022-09-15T11:45:58.306Z,2.25
2022-09-15T11:51:06.542Z,2.00
2022-09-15T11:56:18.069Z,2.40
2022-09-15T12:01:24.311Z,2.72
2022-09-15T12:06:36.286Z,2.55
2022-09-15T12:11:44.428Z,3.17
2022-09-15T12:16:49.598Z,3.30
2022-09-15T12:22:01.603Z,2.42
2022-09-15T12:27:06.947Z,2.53
2022-09-15T12:32:24.265Z,2.50
2022-09-15T12:37:33.711Z,3.13
2022-09-15T12:42:39.318Z,2.45
2022-09-15T12:47:45.755Z,2.33
2022-09-15T12:52:54.942Z,2.90
2022-09-15T12:58:01.788Z,3.05
2022-09-15T13:03:09.483Z,3.22
2022-09-15T13:08:19.183Z,2.40
2022-09-15T13:13:32.731Z,2.70
2022-09-15T13:18:38.507Z,2.33
2022-09-15T13:23:48.259Z,1.98
2022-09-15T13:28:56.234Z,2.05
2022-09-15T13:39:55.976Z,2.75
2022-09-15T13:45:23.205Z,2.40
2022-09-15T13:50:31.807Z,2.13
2022-09-15T13:55:42.107Z,2.45
2022-09-15T14:00:51.846Z,2.53
2022-09-15T14:05:57.469Z,3.20
2022-09-15T14:11:08.564Z,2.90
2022-09-15T14:16:26.579Z,3.47
2022-09-15T14:21:34.176Z,3.20
2022-09-15T14:26:41.864Z,3.43
2022-09-15T14:31:46.935Z,3.43
2022-09-15T14:37:01.392Z,3.00
2022-09-15T14:42:22.980Z,2.50
2022-09-15T14:47:31.476Z,2.30
2022-09-15T14:52:43.839Z,2.80
2022-09-15T14:57:57.764Z,2.63
2022-09-15T15:03:17.550Z,2.70
2022-09-15T15:08:30.383Z,2.67
2022-09-15T15:13:39.038Z,2.30
2022-09-15T15:18:44.809Z,3.72
2022-09-15T15:23:49.994Z,3.33
2022-09-15T15:28:57.836Z,5.22
2022-09-15T15:34:05.569Z,2.70
2022-09-15T15:39:11.100Z,3.13
2022-09-15T15:44:30.802Z,3.78
2022-09-15T15:49:42.319Z,8.05
2022-09-15T15:54:55.988Z,4.15
2022-09-15T16:00:03.927Z,3.60
2022-09-15T16:05:09.403Z,3.33
2022-09-15T16:10:18.017Z,4.13
2022-09-15T16:20:30.771Z,5.43
2022-09-15T16:25:39.098Z,4.30
2022-09-15T16:30:47.479Z,5.05
2022-09-15T16:35:55.162Z,5.22
2022-09-15T16:41:00.269Z,3.97
2022-09-15T16:46:09.234Z,5.18
2022-09-15T16:51:31.798Z,19.73
2022-09-15T16:56:36.974Z,8.40
2022-09-15T17:01:44.737Z,3.70
2022-09-15T17:06:49.825Z,3.50
2022-09-15T17:11:54.957Z,7.60
2022-09-15T17:17:02.570Z,4.30
2022-09-15T17:22:07.713Z,5.70
2022-09-15T17:27:12.758Z,6.68
2022-09-15T17:32:20.390Z,6.72
2022-09-15T17:37:25.396Z,6.13
2022-09-15T17:42:30.419Z,5.63
2022-09-15T17:47:37.992Z,3.85
2022-09-15T17:52:43.050Z,1.70
2022-09-15T17:57:48.650Z,1.90
2022-09-15T18:02:57.869Z,1.30
2022-09-15T18:08:04.077Z,1.60
2022-09-15T18:13:09.458Z,3.58
2022-09-15T18:18:19.993Z,1.75
2022-09-15T18:23:26.481Z,2.72
2022-09-15T18:28:31.480Z,2.00
2022-09-15T18:33:39.148Z,1.83
2022-09-15T18:38:44.199Z,1.83
2022-09-15T18:43:50.756Z,1.75
2022-09-15T18:48:58.364Z,2.38
2022-09-15T18:54:03.507Z,2.50
2022-09-15T18:59:08.636Z,3.20
2022-09-15T19:04:16.638Z,3.10
2022-09-15T19:09:22.104Z,1.48
2022-09-15T19:14:27.451Z,1.20
2022-09-15T19:19:36.118Z,1.00
2022-09-15T19:24:41.204Z,1.57
2022-09-15T19:29:47.068Z,2.20
2022-09-15T19:34:54.878Z,1.38
2022-09-15T19:40:00.222Z,2.00
2022-09-15T19:45:05.383Z,1.48
2022-09-15T19:50:14.680Z,1.35
2022-09-15T20:00:24.824Z,1.52
2022-09-15T20:05:32.590Z,1.35
2022-09-15T20:10:37.638Z,1.88
2022-09-15T20:15:43.038Z,1.20
2022-09-15T20:20:50.692Z,1.13
2022-09-15T20:25:59.864Z,1.27
2022-09-15T20:31:06.254Z,1.77
2022-09-15T20:36:15.494Z,1.60
2022-09-15T20:46:26.927Z,1.30
2022-09-15T20:51:35.722Z,2.05
2022-09-15T20:56:40.739Z,0.88
2022-09-15T21:01:46.672Z,1.48
2022-09-15T21:06:54.377Z,1.80
2022-09-15T21:12:00.232Z,1.73
2022-09-15T21:17:05.277Z,1.13
2022-09-15T21:22:12.915Z,3.25
2022-09-15T21:27:30.783Z,1.90
2022-09-15T21:32:35.934Z,1.60
2022-09-15T21:37:43.532Z,1.48
2022-09-15T21:42:48.578Z,1.38
2022-09-15T21:47:53.552Z,2.55
2022-09-15T21:53:01.158Z,1.45
2022-09-15T21:58:06.179Z,1.10
2022-09-15T22:03:11.239Z,1.10
2022-09-15T22:08:19.603Z,2.17
2022-09-15T22:13:24.615Z,1.85
2022-09-15T22:18:29.671Z,2.70
2022-09-15T22:23:37.320Z,8.25
2022-09-15T22:28:42.524Z,3.95
2022-09-15T22:33:47.564Z,2.25
2022-09-15T22:38:55.534Z,1.63
2022-09-15T22:44:00.627Z,1.40
2022-09-15T22:49:05.687Z,1.45
2022-09-15T22:54:13.309Z,1.50
2022-09-15T22:59:18.338Z,1.30
2022-09-15T23:04:23.777Z,1.20
2022-09-15T23:09:31.604Z,1.20
2022-09-15T23:14:37.155Z,1.95
2022-09-15T23:19:42.227Z,0.90
2022-09-15T23:24:49.905Z,1.02
2022-09-15T23:29:54.862Z,0.77
2022-09-15T23:34:59.925Z,0.90
2022-09-15T23:40:08.515Z,0.98
2022-09-15T23:45:14.071Z,0.80
2022-09-15T23:50:19.162Z,1.30
2022-09-15T23:55:26.791Z,0.95
